Dolton, South Dakota
Current Conditions -  °F | °C
As of 9:53 AM on Wednesday 26 Nov 2014 (Local Time) from KMHE Reporting Station
Light Snow Light Snow  
Wind Chill: -4°   Ceiling: 1100
Heat Index: 14°   Visibility: 5mi
Dew Point:   Wind: 21mph
Humidity: 80%   Direction: 340°NNW
Pressure: 30.3"   Gusts: NA
Location:  43.5669°N, 97.5001°W
Report Text: KMHE 261553Z AUTO 34018KT 5SM -SN OVC011 M10/M13 A3030 RMK AO2 PK WND 34030/1509 UPB1457E30SNB03E18B30 SLP280 P0000 T11001128
Loading
Personal Weather Stations






























Interactive Weather Map New forecast layout! Learn more

10-Day Weather Forecast

Advertisements
Track Severe Weather on mobile